createdAt,value
2018-05-31T00:01:39.285Z,18.97
2018-05-31T00:04:05.167Z,18.94
2018-05-31T00:06:31.090Z,18.79
2018-05-31T00:08:56.944Z,18.78
2018-05-31T00:11:22.804Z,18.77
2018-05-31T00:13:48.692Z,18.79
2018-05-31T00:16:14.581Z,18.66
2018-05-31T00:18:40.465Z,18.44
2018-05-31T00:21:06.335Z,18.41
2018-05-31T00:23:32.196Z,18.37
2018-05-31T00:25:58.085Z,18.40
2018-05-31T00:28:23.981Z,18.36
2018-05-31T00:30:49.850Z,18.31
2018-05-31T00:33:15.709Z,18.10
2018-05-31T00:35:41.583Z,18.20
2018-05-31T00:38:07.437Z,18.13
2018-05-31T00:40:33.274Z,18.02
2018-05-31T00:42:59.184Z,18.11
2018-05-31T00:45:25.027Z,18.29
2018-05-31T00:47:50.885Z,18.32
2018-05-31T00:50:16.796Z,18.28
2018-05-31T00:52:42.687Z,18.42
2018-05-31T00:55:08.574Z,18.71
2018-05-31T00:57:34.397Z,18.79
2018-05-31T01:00:00.263Z,18.62
2018-05-31T01:02:26.134Z,18.67
2018-05-31T01:04:52.009Z,18.84
2018-05-31T01:07:17.916Z,18.89
2018-05-31T01:09:43.780Z,18.42
2018-05-31T01:12:09.633Z,18.01
2018-05-31T01:14:35.492Z,17.88
2018-05-31T01:17:01.368Z,18.05
2018-05-31T01:19:27.240Z,18.31
2018-05-31T01:21:53.094Z,18.40
2018-05-31T01:24:18.926Z,18.45
2018-05-31T01:26:44.808Z,18.67
2018-05-31T01:29:10.681Z,18.78
2018-05-31T01:31:36.554Z,18.40
2018-05-31T01:34:02.413Z,18.25
2018-05-31T01:36:28.258Z,18.33
2018-05-31T01:38:54.137Z,18.31
2018-05-31T01:41:20.043Z,17.97
2018-05-31T01:43:45.950Z,18.10
2018-05-31T01:46:11.829Z,18.23
2018-05-31T01:48:37.700Z,18.40
2018-05-31T01:51:03.621Z,18.09
2018-05-31T01:53:29.481Z,18.00
2018-05-31T01:55:55.329Z,17.68
2018-05-31T01:58:21.200Z,17.33
2018-05-31T02:00:47.111Z,17.61
2018-05-31T02:03:12.989Z,17.78
2018-05-31T02:05:38.845Z,17.95
2018-05-31T02:08:04.784Z,17.87
2018-05-31T02:10:30.650Z,17.66
2018-05-31T02:12:56.514Z,17.53
2018-05-31T02:15:22.368Z,17.52
2018-05-31T02:17:48.261Z,17.70
2018-05-31T02:20:14.138Z,17.69
2018-05-31T02:22:40.023Z,17.63
2018-05-31T02:25:05.875Z,17.68
2018-05-31T02:27:31.722Z,17.85
2018-05-31T02:29:57.614Z,18.05
2018-05-31T02:32:23.481Z,18.12
2018-05-31T02:34:49.343Z,18.04
2018-05-31T02:37:15.200Z,17.94
2018-05-31T02:39:41.071Z,17.90
2018-05-31T02:42:06.908Z,17.88
2018-05-31T02:44:32.804Z,17.83
2018-05-31T02:46:58.684Z,17.95
2018-05-31T02:49:24.557Z,17.95
2018-05-31T02:51:50.442Z,17.99
2018-05-31T02:54:16.335Z,17.91
2018-05-31T02:56:42.210Z,17.46
2018-05-31T02:59:08.054Z,17.06
2018-05-31T03:01:33.932Z,17.12
2018-05-31T03:03:59.781Z,17.20
2018-05-31T03:06:25.663Z,17.44
2018-05-31T03:08:51.533Z,17.70
2018-05-31T03:11:17.417Z,17.87
2018-05-31T03:13:43.269Z,17.83
2018-05-31T03:16:09.122Z,17.72
2018-05-31T03:18:34.956Z,17.66
2018-05-31T03:21:00.818Z,17.71
2018-05-31T03:23:26.699Z,17.70
2018-05-31T03:25:52.563Z,17.28
2018-05-31T03:28:18.400Z,16.84
2018-05-31T03:30:44.236Z,16.36
2018-05-31T03:33:10.112Z,16.67
2018-05-31T03:35:35.944Z,17.15
2018-05-31T03:38:01.789Z,17.30
2018-05-31T03:40:27.656Z,17.46
2018-05-31T03:42:53.545Z,16.95
2018-05-31T03:45:19.398Z,16.79
2018-05-31T03:47:45.241Z,17.22
2018-05-31T03:50:11.156Z,17.42
2018-05-31T03:52:36.989Z,17.61
2018-05-31T03:55:02.853Z,17.74
2018-05-31T03:57:28.732Z,17.67
2018-05-31T03:59:54.613Z,17.35
2018-05-31T04:02:20.580Z,17.67
2018-05-31T04:04:46.470Z,17.94
2018-05-31T04:07:12.340Z,18.08
2018-05-31T04:09:38.197Z,18.10
2018-05-31T04:12:04.109Z,18.02
2018-05-31T04:14:29.972Z,18.10
2018-05-31T04:16:55.847Z,18.21
2018-05-31T04:19:21.712Z,18.04
2018-05-31T04:21:47.595Z,17.66
2018-05-31T04:24:13.463Z,18.05
2018-05-31T04:26:39.327Z,18.20
2018-05-31T04:29:05.195Z,18.20
2018-05-31T04:31:31.079Z,18.25
2018-05-31T04:33:56.933Z,18.22
2018-05-31T04:36:22.817Z,18.31
2018-05-31T04:38:48.688Z,18.42
2018-05-31T04:41:14.622Z,18.57
2018-05-31T04:43:40.482Z,18.95
2018-05-31T04:46:06.332Z,19.13
2018-05-31T04:48:32.212Z,19.11
2018-05-31T04:50:58.061Z,19.06
2018-05-31T04:53:23.921Z,18.99
2018-05-31T04:55:49.762Z,19.25
2018-05-31T04:58:15.602Z,18.94
2018-05-31T05:00:41.460Z,19.01
2018-05-31T05:03:07.433Z,19.17
2018-05-31T05:05:33.305Z,19.02
2018-05-31T05:07:59.154Z,19.01
2018-05-31T05:10:25.042Z,18.94
2018-05-31T05:12:50.897Z,18.93
2018-05-31T05:15:16.760Z,18.86
2018-05-31T05:17:42.621Z,18.85
2018-05-31T05:20:08.500Z,19.19
2018-05-31T05:22:34.398Z,18.96
2018-05-31T05:25:00.265Z,19.24
2018-05-31T05:27:26.154Z,19.50
2018-05-31T05:29:52.017Z,19.60
2018-05-31T05:32:17.884Z,19.69
2018-05-31T05:34:43.769Z,19.69
2018-05-31T05:37:09.685Z,19.76
2018-05-31T05:39:35.549Z,20.18
2018-05-31T05:42:01.425Z,20.55
2018-05-31T05:44:27.289Z,20.68
2018-05-31T05:46:53.152Z,20.61
2018-05-31T05:49:19.026Z,20.79
2018-05-31T05:51:44.894Z,21.08
2018-05-31T05:54:10.754Z,21.15
2018-05-31T05:56:36.599Z,21.34
2018-05-31T05:59:02.501Z,21.87
2018-05-31T06:01:30.879Z,21.92
2018-05-31T06:03:56.711Z,21.79
2018-05-31T06:06:22.587Z,21.73
2018-05-31T06:08:48.493Z,21.75
2018-05-31T06:11:14.342Z,22.13
2018-05-31T06:13:40.233Z,22.27
2018-05-31T06:16:06.129Z,22.56
2018-05-31T06:18:32.013Z,22.83
2018-05-31T06:20:57.853Z,22.92
2018-05-31T06:23:23.744Z,23.22
2018-05-31T06:25:49.626Z,23.48
2018-05-31T06:28:15.517Z,23.73
2018-05-31T06:30:41.386Z,23.97
2018-05-31T06:33:07.213Z,23.85
2018-05-31T06:35:33.110Z,23.88
2018-05-31T06:37:58.952Z,23.54
2018-05-31T06:40:24.791Z,23.81
2018-05-31T06:42:50.651Z,24.28
2018-05-31T06:45:16.521Z,24.68
2018-05-31T06:47:42.373Z,25.05
2018-05-31T06:50:08.249Z,24.93
2018-05-31T06:52:34.111Z,24.94
2018-05-31T06:54:59.939Z,24.71
2018-05-31T06:57:25.788Z,25.04
2018-05-31T06:59:51.649Z,25.42
2018-05-31T07:02:17.509Z,25.34
2018-05-31T07:04:43.348Z,25.16
2018-05-31T07:07:09.209Z,25.26
2018-05-31T07:09:35.057Z,25.83
2018-05-31T07:12:00.906Z,25.78
2018-05-31T07:14:26.798Z,25.85
2018-05-31T07:16:52.625Z,25.68
2018-05-31T07:19:18.488Z,25.76
2018-05-31T07:21:44.397Z,25.60
2018-05-31T07:24:10.220Z,25.96
2018-05-31T07:26:36.089Z,26.17
2018-05-31T07:29:01.964Z,26.04
2018-05-31T07:31:27.838Z,26.04
2018-05-31T07:33:53.718Z,26.02
2018-05-31T07:36:19.600Z,25.75
2018-05-31T07:38:45.463Z,26.01
2018-05-31T07:41:11.341Z,26.33
2018-05-31T07:43:37.213Z,26.47
2018-05-31T07:46:03.087Z,26.58
2018-05-31T07:48:28.949Z,26.66
2018-05-31T07:50:54.805Z,26.44
2018-05-31T07:53:20.653Z,26.64
2018-05-31T07:55:46.541Z,26.64
2018-05-31T07:58:12.493Z,26.62
2018-05-31T08:00:38.325Z,26.73
2018-05-31T08:03:04.179Z,26.69
2018-05-31T08:05:30.029Z,27.21
2018-05-31T08:07:55.916Z,26.79
2018-05-31T08:10:21.770Z,26.82
2018-05-31T08:12:47.638Z,26.72
2018-05-31T08:15:13.583Z,27.26
2018-05-31T08:17:39.425Z,27.14
2018-05-31T08:20:05.312Z,27.64
2018-05-31T08:22:31.177Z,27.69
2018-05-31T08:24:57.042Z,28.26
2018-05-31T08:27:22.894Z,27.83
2018-05-31T08:29:48.770Z,28.06
2018-05-31T08:32:14.631Z,28.22
2018-05-31T08:34:40.498Z,28.23
2018-05-31T08:37:06.368Z,28.18
2018-05-31T08:39:32.241Z,27.33
2018-05-31T08:41:58.121Z,27.19
2018-05-31T08:44:23.960Z,27.93
2018-05-31T08:46:49.861Z,28.24
2018-05-31T08:49:15.730Z,27.73
2018-05-31T08:51:41.604Z,27.44
2018-05-31T08:54:07.466Z,28.18
2018-05-31T08:56:33.357Z,28.49
2018-05-31T08:58:59.256Z,28.17
2018-05-31T09:01:25.253Z,28.65
2018-05-31T09:03:51.098Z,28.98
2018-05-31T09:06:16.976Z,29.07
2018-05-31T09:08:42.865Z,28.94
2018-05-31T09:11:08.726Z,29.16
2018-05-31T09:13:34.586Z,29.36
2018-05-31T09:16:00.468Z,29.42
2018-05-31T09:18:26.366Z,29.71
2018-05-31T09:20:52.245Z,29.85
2018-05-31T09:23:18.150Z,29.64
2018-05-31T09:25:44.022Z,29.89
2018-05-31T09:28:09.916Z,29.72
2018-05-31T09:30:35.805Z,29.95
2018-05-31T09:33:01.678Z,29.43
2018-05-31T09:35:27.557Z,29.03
2018-05-31T09:37:53.447Z,28.55
2018-05-31T09:40:19.309Z,28.88
2018-05-31T09:42:45.165Z,28.97
2018-05-31T09:45:11.056Z,29.27
2018-05-31T09:47:36.946Z,29.48
2018-05-31T09:50:02.840Z,29.94
2018-05-31T09:52:28.745Z,29.63
2018-05-31T09:54:54.651Z,30.03
2018-05-31T09:57:20.545Z,29.64
2018-05-31T09:59:46.418Z,30.12
2018-05-31T10:02:12.381Z,30.42
2018-05-31T10:04:38.254Z,30.66
2018-05-31T10:07:04.160Z,30.50
2018-05-31T10:09:30.062Z,30.85
2018-05-31T10:11:56.009Z,30.61
2018-05-31T10:14:21.873Z,30.51
2018-05-31T10:16:47.749Z,30.43
2018-05-31T10:19:13.590Z,30.64
2018-05-31T10:21:39.434Z,30.35
2018-05-31T10:24:05.266Z,30.14
2018-05-31T10:26:31.118Z,31.17
2018-05-31T10:28:57.002Z,31.21
2018-05-31T10:31:22.874Z,31.49
2018-05-31T10:33:48.744Z,32.01
2018-05-31T10:36:14.591Z,32.11
2018-05-31T10:38:40.505Z,32.41
2018-05-31T10:41:06.377Z,32.48
2018-05-31T10:43:32.233Z,31.80
2018-05-31T10:45:58.121Z,31.25
2018-05-31T10:48:23.977Z,31.83
2018-05-31T10:50:49.863Z,31.73
2018-05-31T10:53:15.744Z,31.07
2018-05-31T10:55:41.626Z,30.83
2018-05-31T10:58:07.484Z,31.38
2018-05-31T11:00:33.401Z,31.50
2018-05-31T11:02:59.272Z,31.20
2018-05-31T11:05:25.158Z,31.57
2018-05-31T11:07:51.028Z,32.39
2018-05-31T11:10:16.908Z,32.62
2018-05-31T11:12:42.746Z,33.02
2018-05-31T11:15:08.600Z,32.94
2018-05-31T11:17:34.505Z,32.59
2018-05-31T11:20:00.355Z,32.59
2018-05-31T11:22:26.218Z,31.31
2018-05-31T11:24:52.079Z,31.69
2018-05-31T11:27:17.967Z,31.62
2018-05-31T11:29:43.830Z,31.32
2018-05-31T11:32:09.667Z,31.35
2018-05-31T11:34:35.557Z,31.91
2018-05-31T11:37:01.430Z,32.20
2018-05-31T11:39:27.319Z,33.18
2018-05-31T11:41:53.977Z,33.34
2018-05-31T11:44:19.838Z,33.35
2018-05-31T11:46:45.693Z,33.13
2018-05-31T11:49:11.607Z,33.06
2018-05-31T11:51:37.475Z,32.98
2018-05-31T11:54:03.370Z,33.10
2018-05-31T11:56:29.317Z,32.67
2018-05-31T12:01:50.069Z,33.28
2018-05-31T12:04:15.993Z,33.47
2018-05-31T12:06:41.900Z,33.32
2018-05-31T12:09:07.799Z,34.00
2018-05-31T12:11:33.734Z,34.33
2018-05-31T12:13:59.673Z,33.86
2018-05-31T12:16:25.594Z,34.35
2018-05-31T12:18:51.509Z,34.65
2018-05-31T12:21:17.373Z,34.72
2018-05-31T12:23:43.262Z,33.71
2018-05-31T12:26:09.152Z,34.57
2018-05-31T12:28:35.018Z,33.96
2018-05-31T12:31:00.898Z,33.50
2018-05-31T12:33:26.802Z,34.16
2018-05-31T12:35:52.696Z,33.43
2018-05-31T12:38:18.622Z,33.18
2018-05-31T12:40:44.642Z,34.17
2018-05-31T12:43:10.533Z,34.90
2018-05-31T12:45:36.443Z,34.82
2018-05-31T12:48:02.358Z,34.97
2018-05-31T12:50:28.255Z,34.67
2018-05-31T12:52:54.172Z,34.41
2018-05-31T12:55:20.065Z,33.45
2018-05-31T12:57:45.960Z,33.51
2018-05-31T13:00:14.433Z,34.57
2018-05-31T13:02:40.311Z,34.20
2018-05-31T13:05:06.161Z,33.85
2018-05-31T13:07:32.110Z,34.91
2018-05-31T13:09:57.977Z,36.15
2018-05-31T13:12:23.875Z,36.24
2018-05-31T13:14:50.966Z,34.48
2018-05-31T13:17:19.951Z,34.22
2018-05-31T13:19:47.562Z,33.30
2018-05-31T13:22:16.008Z,33.42
2018-05-31T13:24:43.086Z,33.24
2018-05-31T13:27:14.764Z,33.02
2018-05-31T13:29:42.771Z,32.77
2018-05-31T13:32:10.303Z,33.20
2018-05-31T13:34:43.294Z,33.23
2018-05-31T13:37:11.556Z,33.54
2018-05-31T13:39:37.540Z,34.06
2018-05-31T13:42:03.424Z,35.02
2018-05-31T13:44:31.280Z,34.95
2018-05-31T13:46:57.282Z,34.99
2018-05-31T13:49:23.189Z,34.43
2018-05-31T13:51:49.086Z,34.34
2018-05-31T13:54:15.008Z,34.99
2018-05-31T13:56:40.957Z,34.36
2018-05-31T13:59:06.889Z,34.09
2018-05-31T14:01:32.803Z,35.20
2018-05-31T14:03:58.797Z,34.97
2018-05-31T14:06:24.714Z,35.21
2018-05-31T14:08:50.613Z,35.62
2018-05-31T14:11:16.644Z,35.74
2018-05-31T14:13:42.533Z,33.85
2018-05-31T14:16:08.406Z,32.98
2018-05-31T14:18:34.409Z,32.87
2018-05-31T14:21:00.281Z,33.40
2018-05-31T14:23:26.181Z,33.12
2018-05-31T14:25:52.053Z,33.54
2018-05-31T14:28:17.929Z,34.21
2018-05-31T14:30:43.805Z,33.86
2018-05-31T14:33:09.709Z,33.44
2018-05-31T14:35:35.599Z,32.01
2018-05-31T14:38:01.546Z,31.97
2018-05-31T14:40:27.433Z,31.67
2018-05-31T14:42:53.290Z,31.41
2018-05-31T14:45:19.238Z,31.70
2018-05-31T14:47:45.129Z,30.87
2018-05-31T14:50:10.995Z,30.72
2018-05-31T14:52:36.837Z,30.30
2018-05-31T14:55:02.702Z,29.94
2018-05-31T14:57:28.540Z,29.90
2018-05-31T14:59:54.461Z,29.88
2018-05-31T15:02:20.345Z,29.67
2018-05-31T15:04:46.242Z,27.99
2018-05-31T15:07:12.142Z,25.90
2018-05-31T15:09:38.021Z,24.72
2018-05-31T15:12:03.938Z,24.99
2018-05-31T15:14:29.881Z,25.22
2018-05-31T15:16:55.765Z,25.49
2018-05-31T15:19:21.647Z,25.48
2018-05-31T15:21:47.528Z,25.30
2018-05-31T15:24:13.409Z,26.15
2018-05-31T15:26:39.334Z,24.95
2018-05-31T15:29:05.217Z,24.14
2018-05-31T15:31:31.130Z,21.89
2018-05-31T15:33:57.059Z,21.58
2018-05-31T15:36:22.954Z,20.78
2018-05-31T15:38:48.841Z,20.50
2018-05-31T15:41:14.748Z,19.99
2018-05-31T15:43:40.632Z,19.96
2018-05-31T15:46:06.520Z,20.59
2018-05-31T15:48:32.407Z,20.07
2018-05-31T15:50:58.292Z,20.83
2018-05-31T15:53:24.208Z,21.10
2018-05-31T15:55:50.119Z,21.51
2018-05-31T15:58:16.023Z,20.68
2018-05-31T16:00:41.948Z,20.93
2018-05-31T16:03:07.813Z,21.32
2018-05-31T16:05:33.706Z,21.58
2018-05-31T16:07:59.580Z,21.26
2018-05-31T16:10:25.491Z,20.86
2018-05-31T16:12:51.451Z,21.00
2018-05-31T16:15:17.332Z,20.84
2018-05-31T16:17:43.235Z,20.19
2018-05-31T16:20:09.137Z,19.98
2018-05-31T16:22:35.040Z,20.18
2018-05-31T16:25:00.920Z,20.53
2018-05-31T16:27:26.811Z,20.59
2018-05-31T16:29:52.720Z,20.29
2018-05-31T16:32:18.619Z,20.52
2018-05-31T16:34:44.562Z,20.83
2018-05-31T16:37:10.441Z,20.83
2018-05-31T16:39:36.350Z,21.04
2018-05-31T16:42:02.275Z,21.30
2018-05-31T16:44:28.188Z,21.49
2018-05-31T16:46:54.104Z,21.64
2018-05-31T16:49:20.036Z,21.65
2018-05-31T16:51:46.004Z,21.69
2018-05-31T16:54:11.870Z,21.60
2018-05-31T16:56:37.735Z,21.48
2018-05-31T16:59:03.609Z,21.19
2018-05-31T17:01:29.460Z,20.98
2018-05-31T17:03:55.337Z,21.08
2018-05-31T17:06:21.245Z,20.74
2018-05-31T17:08:47.119Z,20.70
2018-05-31T17:11:13.040Z,20.69
2018-05-31T17:13:38.874Z,20.92
2018-05-31T17:16:04.746Z,21.14
2018-05-31T17:18:30.621Z,21.23
2018-05-31T17:20:56.546Z,21.63
2018-05-31T17:23:22.386Z,21.83
2018-05-31T17:25:48.234Z,21.80
2018-05-31T17:28:14.105Z,21.68
2018-05-31T17:30:39.981Z,21.39
2018-05-31T17:33:05.872Z,21.14
2018-05-31T17:35:31.726Z,20.99
2018-05-31T17:37:57.580Z,20.52
2018-05-31T17:40:23.409Z,20.93
2018-05-31T17:42:49.281Z,20.93
2018-05-31T17:45:15.153Z,20.71
2018-05-31T17:47:41.011Z,20.64
2018-05-31T17:50:07.069Z,20.66
2018-05-31T17:52:32.924Z,20.47
2018-05-31T17:54:58.776Z,20.23
2018-05-31T17:57:24.621Z,20.17
2018-05-31T17:59:50.492Z,20.05
2018-05-31T18:02:16.365Z,20.31
2018-05-31T18:04:42.250Z,20.24
2018-05-31T18:07:08.077Z,19.96
2018-05-31T18:09:33.925Z,20.03
2018-05-31T18:11:59.797Z,20.34
2018-05-31T18:14:25.642Z,20.22
2018-05-31T18:16:51.480Z,20.42
2018-05-31T18:19:17.378Z,20.37
2018-05-31T18:21:43.250Z,20.19
2018-05-31T18:24:09.118Z,20.02
2018-05-31T18:26:34.985Z,20.08
2018-05-31T18:29:00.868Z,20.25
2018-05-31T18:31:26.833Z,20.38
2018-05-31T18:33:52.733Z,20.25
2018-05-31T18:36:18.618Z,20.00
2018-05-31T18:38:44.506Z,19.88
2018-05-31T18:41:10.374Z,19.66
2018-05-31T18:43:36.267Z,19.84
2018-05-31T18:46:02.122Z,19.87
2018-05-31T18:48:28.011Z,19.93
2018-05-31T18:50:53.976Z,19.88
2018-05-31T18:53:19.833Z,19.96
2018-05-31T18:55:45.720Z,19.90
2018-05-31T18:58:11.632Z,19.92
2018-05-31T19:00:37.515Z,19.72
2018-05-31T19:03:03.428Z,19.87
2018-05-31T19:05:29.323Z,20.05
2018-05-31T19:07:55.199Z,20.00
2018-05-31T19:10:21.084Z,20.14
2018-05-31T19:12:53.006Z,19.92
2018-05-31T19:15:21.766Z,19.92
2018-05-31T19:17:44.816Z,19.91
2018-05-31T19:20:10.763Z,19.78
2018-05-31T19:22:36.654Z,19.87
2018-05-31T19:25:08.606Z,20.06
2018-05-31T19:27:34.453Z,20.05
2018-05-31T19:30:06.505Z,19.90
2018-05-31T19:32:32.427Z,19.89
2018-05-31T19:34:58.256Z,20.08
2018-05-31T19:37:24.133Z,19.75
2018-05-31T19:39:50.022Z,19.61
2018-05-31T19:42:22.118Z,19.41
2018-05-31T19:44:47.969Z,19.27
2018-05-31T19:47:13.853Z,18.95
2018-05-31T19:49:39.717Z,18.83
2018-05-31T19:52:11.568Z,18.85
2018-05-31T19:54:37.465Z,19.25
2018-05-31T19:57:03.383Z,19.52
2018-05-31T19:59:35.420Z,19.60
2018-05-31T20:02:07.496Z,19.43
2018-05-31T20:04:33.350Z,19.43
2018-05-31T20:06:59.323Z,19.59
2018-05-31T20:09:25.169Z,19.75
2018-05-31T20:11:51.044Z,19.83
2018-05-31T20:14:16.926Z,19.90
2018-05-31T20:16:42.795Z,19.72
2018-05-31T20:19:08.689Z,19.75
2018-05-31T20:21:34.632Z,19.82
2018-05-31T20:24:00.561Z,19.87
2018-05-31T20:26:26.463Z,19.99
2018-05-31T20:28:52.316Z,19.89
2018-05-31T20:31:18.218Z,19.97
2018-05-31T20:33:44.100Z,19.91
2018-05-31T20:36:09.946Z,19.92
2018-05-31T20:38:35.841Z,19.93
2018-05-31T20:41:01.748Z,19.88
2018-05-31T20:43:27.685Z,19.93
2018-05-31T20:45:53.588Z,19.96
2018-05-31T20:48:19.484Z,19.94
2018-05-31T20:50:45.350Z,19.96
2018-05-31T20:53:11.200Z,19.60
2018-05-31T20:55:37.071Z,19.56
2018-05-31T20:58:02.932Z,19.36
2018-05-31T21:00:28.810Z,19.42
2018-05-31T21:02:54.641Z,19.58
2018-05-31T21:05:20.519Z,19.72
2018-05-31T21:07:46.427Z,19.58
2018-05-31T21:10:12.308Z,19.62
2018-05-31T21:12:38.217Z,19.66
2018-05-31T21:15:04.112Z,19.77
2018-05-31T21:17:30.052Z,19.87
2018-05-31T21:19:55.944Z,19.72
2018-05-31T21:22:21.776Z,19.83
2018-05-31T21:24:47.657Z,19.86
2018-05-31T21:27:13.526Z,19.95
2018-05-31T21:29:39.381Z,19.90
2018-05-31T21:32:05.232Z,19.63
2018-05-31T21:34:31.112Z,19.80
2018-05-31T21:36:56.968Z,19.80
2018-05-31T21:39:22.926Z,19.33
2018-05-31T21:41:48.808Z,18.94
2018-05-31T21:44:14.657Z,18.70
2018-05-31T21:46:40.517Z,18.70
2018-05-31T21:49:06.383Z,18.96
2018-05-31T21:51:32.280Z,18.80
2018-05-31T21:53:58.154Z,18.79
2018-05-31T21:56:24.012Z,19.01
2018-05-31T21:58:49.866Z,18.81
2018-05-31T22:01:15.714Z,18.86
2018-05-31T22:03:41.568Z,18.70
2018-05-31T22:06:07.440Z,18.63
2018-05-31T22:08:33.308Z,18.84
2018-05-31T22:10:59.190Z,19.05
2018-05-31T22:13:25.059Z,19.12
2018-05-31T22:15:50.920Z,19.13
2018-05-31T22:18:16.888Z,19.01
2018-05-31T22:20:42.741Z,18.99
2018-05-31T22:23:08.610Z,18.76
2018-05-31T22:25:34.468Z,18.65
2018-05-31T22:28:00.329Z,18.83
2018-05-31T22:30:26.208Z,18.82
2018-05-31T22:32:52.101Z,19.18
2018-05-31T22:35:17.992Z,19.17
2018-05-31T22:37:43.829Z,18.60
2018-05-31T22:40:09.677Z,18.40
2018-05-31T22:42:35.588Z,18.81
2018-05-31T22:45:01.442Z,18.90
2018-05-31T22:47:27.294Z,19.01
2018-05-31T22:49:53.137Z,19.13
2018-05-31T22:52:19.010Z,19.09
2018-05-31T22:54:44.890Z,19.15
2018-05-31T22:57:10.741Z,19.03
2018-05-31T22:59:36.592Z,18.71
2018-05-31T23:02:02.469Z,18.64
2018-05-31T23:04:28.330Z,18.46
2018-05-31T23:06:54.200Z,18.21
2018-05-31T23:09:20.092Z,18.32
2018-05-31T23:11:45.988Z,18.38
2018-05-31T23:14:11.839Z,18.38
2018-05-31T23:16:37.780Z,18.39
2018-05-31T23:19:03.681Z,18.51
2018-05-31T23:21:29.556Z,18.54
2018-05-31T23:23:55.410Z,18.79
2018-05-31T23:26:21.265Z,18.93
2018-05-31T23:28:47.125Z,18.97
2018-05-31T23:31:12.952Z,19.03
2018-05-31T23:33:38.773Z,18.71
2018-05-31T23:36:04.667Z,18.53
2018-05-31T23:38:30.504Z,18.47
2018-05-31T23:40:56.330Z,18.71
2018-05-31T23:43:22.150Z,18.65
2018-05-31T23:45:47.964Z,18.54
2018-05-31T23:48:13.837Z,18.76
2018-05-31T23:50:39.674Z,18.67
2018-05-31T23:53:05.545Z,18.66
2018-05-31T23:55:31.408Z,18.66
2018-05-31T23:57:57.271Z,18.67
